createdAt,value
2022-12-25T00:00:36.195Z,102020.53
2022-12-25T00:03:04.924Z,101762.47
2022-12-25T00:05:33.918Z,101762.47
2022-12-25T00:08:02.555Z,102020.53
2022-12-25T00:10:32.529Z,102278.66
2022-12-25T00:13:01.023Z,102536.75
2022-12-25T00:15:29.751Z,103053.06
2022-12-25T00:17:58.336Z,103569.44
2022-12-25T00:20:26.994Z,104085.91
2022-12-25T00:22:55.606Z,104344.16
2022-12-25T00:25:24.124Z,104602.44
2022-12-25T00:27:54.092Z,104860.72
2022-12-25T00:30:22.570Z,104860.72
2022-12-25T00:32:51.179Z,105119.03
2022-12-25T00:35:21.499Z,105377.34
2022-12-25T00:37:50.330Z,105894.09
2022-12-25T00:40:19.151Z,106152.47
2022-12-25T00:42:49.978Z,106152.47
2022-12-25T00:45:20.035Z,106410.88
2022-12-25T00:47:48.607Z,106927.75
2022-12-25T00:50:18.264Z,107186.22
2022-12-25T00:52:47.328Z,107186.22
2022-12-25T00:55:15.832Z,106669.31
2022-12-25T00:57:44.759Z,106669.31
2022-12-25T01:00:14.699Z,106927.75
2022-12-25T01:02:44.589Z,107444.69
2022-12-25T01:05:13.144Z,107703.22
2022-12-25T01:07:41.615Z,108220.28
2022-12-25T01:10:22.863Z,108737.41
2022-12-25T01:12:52.369Z,108996.00
2022-12-25T01:15:21.133Z,109254.63
2022-12-25T01:17:51.229Z,109254.63
2022-12-25T01:20:20.806Z,109254.63
2022-12-25T01:22:49.372Z,109254.63
2022-12-25T01:25:17.960Z,109254.63
2022-12-25T01:27:46.522Z,109771.94
2022-12-25T01:30:15.165Z,109771.94
2022-12-25T01:32:43.729Z,110030.59
2022-12-25T01:35:13.592Z,109771.94
2022-12-25T01:37:42.162Z,109771.94
2022-12-25T01:40:11.186Z,109771.94
2022-12-25T01:42:39.653Z,109771.94
2022-12-25T01:45:33.538Z,110030.59
2022-12-25T01:48:06.414Z,110030.59
2022-12-25T01:50:39.085Z,110030.59
2022-12-25T01:53:08.723Z,110030.59
2022-12-25T01:55:39.019Z,110030.59
2022-12-25T01:58:07.715Z,110289.28
2022-12-25T02:00:36.236Z,110289.28
2022-12-25T02:03:06.171Z,110289.28
2022-12-25T02:05:36.863Z,110289.28
2022-12-25T02:08:10.620Z,110548.00
2022-12-25T02:10:40.008Z,110548.00
2022-12-25T02:13:09.562Z,110806.75
2022-12-25T02:15:47.185Z,110806.75
2022-12-25T02:18:22.547Z,110548.00
2022-12-25T02:21:10.877Z,110806.75
2022-12-25T02:23:54.207Z,110806.75
2022-12-25T02:26:49.537Z,110548.00
2022-12-25T02:29:25.777Z,110289.28
2022-12-25T02:32:00.494Z,110289.28
2022-12-25T02:34:36.781Z,110030.59
2022-12-25T02:37:09.289Z,110030.59
2022-12-25T02:40:00.044Z,110289.28
2022-12-25T02:42:54.841Z,110548.00
2022-12-25T02:45:48.019Z,110806.75
2022-12-25T02:48:36.398Z,110806.75
2022-12-25T02:51:25.927Z,110806.75
2022-12-25T02:54:15.373Z,110548.00
2022-12-25T02:57:04.528Z,110030.59
2022-12-25T02:59:53.225Z,109771.94
2022-12-25T03:02:42.517Z,109513.28
2022-12-25T03:05:32.352Z,109254.63
2022-12-25T03:08:04.711Z,109513.28
2022-12-25T03:10:53.969Z,109771.94
2022-12-25T03:13:27.497Z,109254.63
2022-12-25T03:16:14.685Z,108996.00
2022-12-25T03:18:44.711Z,108737.41
2022-12-25T03:21:30.736Z,108737.41
2022-12-25T03:24:20.134Z,108737.41
2022-12-25T03:26:58.612Z,108478.84
2022-12-25T03:29:47.480Z,108737.41
2022-12-25T03:32:23.625Z,108996.00
2022-12-25T03:35:20.403Z,108996.00
2022-12-25T03:38:38.115Z,109254.63
2022-12-25T03:41:35.581Z,109513.28
2022-12-25T03:44:29.898Z,109771.94
2022-12-25T03:47:24.410Z,110289.28
2022-12-25T03:50:21.821Z,111065.50
2022-12-25T03:53:09.844Z,111065.50
2022-12-25T03:55:56.984Z,111065.50
2022-12-25T03:58:44.469Z,110806.75
2022-12-25T04:01:31.297Z,110548.00
2022-12-25T04:04:17.575Z,110548.00
2022-12-25T04:07:04.717Z,110289.28
2022-12-25T04:09:50.925Z,110548.00
2022-12-25T04:12:36.955Z,110806.75
2022-12-25T04:15:31.511Z,110806.75
2022-12-25T04:18:17.854Z,110806.75
2022-12-25T04:21:04.169Z,110548.00
2022-12-25T04:23:51.834Z,110289.28
2022-12-25T04:26:38.032Z,110548.00
2022-12-25T04:29:24.142Z,109771.94
2022-12-25T04:32:10.254Z,109254.63
2022-12-25T04:34:55.822Z,109771.94
2022-12-25T04:37:24.451Z,109254.63
2022-12-25T04:39:54.295Z,108996.00
2022-12-25T04:42:22.701Z,108996.00
2022-12-25T04:44:51.082Z,108737.41
2022-12-25T04:47:19.440Z,108220.28
2022-12-25T04:49:47.833Z,107444.69
2022-12-25T04:52:16.269Z,106410.88
2022-12-25T04:54:44.671Z,107186.22
2022-12-25T04:57:14.490Z,106410.88
2022-12-25T04:59:43.163Z,106152.47
2022-12-25T05:02:11.850Z,106152.47
2022-12-25T05:04:40.340Z,106410.88
2022-12-25T05:07:08.865Z,105635.72
2022-12-25T05:09:41.860Z,105635.72
2022-12-25T05:12:10.754Z,105894.09
2022-12-25T05:14:41.385Z,105377.34
2022-12-25T05:17:09.857Z,105377.34
2022-12-25T05:19:38.399Z,105894.09
2022-12-25T05:22:06.865Z,106152.47
2022-12-25T05:24:35.325Z,105635.72
2022-12-25T05:27:03.743Z,106152.47
2022-12-25T05:29:32.184Z,105894.09
2022-12-25T05:32:02.168Z,106152.47
2022-12-25T05:34:30.667Z,106669.31
2022-12-25T05:36:59.320Z,106669.31
2022-12-25T05:39:27.881Z,105894.09
2022-12-25T05:41:56.511Z,105635.72
2022-12-25T05:44:25.340Z,105119.03
2022-12-25T05:46:53.851Z,105119.03
2022-12-25T05:49:23.957Z,105119.03
2022-12-25T05:51:52.430Z,105635.72
2022-12-25T05:54:20.949Z,106410.88
2022-12-25T05:56:49.428Z,106152.47
2022-12-25T05:59:17.883Z,106152.47
2022-12-25T06:01:46.836Z,106152.47
2022-12-25T06:04:15.563Z,106669.31
2022-12-25T06:06:45.681Z,106927.75
2022-12-25T06:09:14.707Z,107186.22
2022-12-25T06:11:43.505Z,107444.69
2022-12-25T06:14:13.103Z,107703.22
2022-12-25T06:16:41.795Z,107703.22
2022-12-25T06:19:10.472Z,107961.72
2022-12-25T06:21:39.013Z,108220.28
2022-12-25T06:24:09.196Z,108478.84
2022-12-25T06:26:37.753Z,108478.84
2022-12-25T06:29:06.525Z,108737.41
2022-12-25T06:31:35.204Z,108737.41
2022-12-25T06:34:04.383Z,108737.41
2022-12-25T06:36:32.887Z,108737.41
2022-12-25T06:39:06.571Z,108996.00
2022-12-25T06:41:36.791Z,108737.41
2022-12-25T06:44:05.275Z,108996.00
2022-12-25T06:46:34.144Z,108737.41
2022-12-25T06:49:02.676Z,109254.63
2022-12-25T06:51:32.490Z,109513.28
2022-12-25T06:54:04.183Z,109513.28
2022-12-25T06:56:34.022Z,109513.28
2022-12-25T06:59:06.108Z,109513.28
2022-12-25T07:01:38.056Z,109513.28
2022-12-25T07:04:09.000Z,109513.28
2022-12-25T07:06:37.546Z,109771.94
2022-12-25T07:09:05.918Z,109771.94
2022-12-25T07:11:34.455Z,109771.94
2022-12-25T07:14:04.280Z,109771.94
2022-12-25T07:16:32.791Z,109771.94
2022-12-25T07:19:01.780Z,110030.59
2022-12-25T07:21:30.275Z,110030.59
2022-12-25T07:23:58.735Z,109771.94
2022-12-25T07:26:27.190Z,110030.59
2022-12-25T07:28:56.718Z,110030.59
2022-12-25T07:31:26.575Z,110289.28
2022-12-25T07:33:55.625Z,110289.28
2022-12-25T07:36:24.206Z,110289.28
2022-12-25T07:38:52.833Z,110289.28
2022-12-25T07:41:21.303Z,110030.59
2022-12-25T07:43:51.802Z,109771.94
2022-12-25T07:46:20.838Z,109771.94
2022-12-25T07:48:51.224Z,109771.94
2022-12-25T07:51:19.978Z,109771.94
2022-12-25T07:53:48.780Z,109513.28
2022-12-25T07:56:19.374Z,109513.28
2022-12-25T07:58:48.484Z,109771.94
2022-12-25T08:01:20.433Z,109771.94
2022-12-25T08:03:55.005Z,109771.94
2022-12-25T08:06:27.001Z,109513.28
2022-12-25T08:08:55.618Z,109513.28
2022-12-25T08:11:24.562Z,109771.94
2022-12-25T08:13:53.273Z,109513.28
2022-12-25T08:16:25.130Z,109513.28
2022-12-25T08:18:55.230Z,109254.63
2022-12-25T08:21:24.017Z,109513.28
2022-12-25T08:23:52.659Z,109513.28
2022-12-25T08:26:23.520Z,109513.28
2022-12-25T08:28:52.522Z,109771.94
2022-12-25T08:31:23.244Z,109771.94
2022-12-25T08:33:55.205Z,109771.94
2022-12-25T08:36:24.757Z,109513.28
2022-12-25T08:38:57.023Z,109771.94
2022-12-25T08:41:29.586Z,109513.28
2022-12-25T08:43:58.223Z,109513.28
2022-12-25T08:46:27.026Z,109513.28
2022-12-25T08:48:59.126Z,109513.28
2022-12-25T08:51:28.066Z,109513.28
2022-12-25T08:54:01.077Z,109513.28
2022-12-25T08:56:30.054Z,109771.94
2022-12-25T08:58:58.609Z,109771.94
2022-12-25T09:01:27.392Z,109771.94
2022-12-25T09:03:57.460Z,109771.94
2022-12-25T09:06:26.046Z,110030.59
2022-12-25T09:08:54.635Z,110030.59
2022-12-25T09:11:24.230Z,110289.28
2022-12-25T09:13:52.837Z,110289.28
2022-12-25T09:16:23.232Z,110548.00
2022-12-25T09:18:52.164Z,110548.00
2022-12-25T09:21:22.272Z,110548.00
2022-12-25T09:23:50.964Z,110289.28
2022-12-25T09:26:20.714Z,110289.28
2022-12-25T09:28:52.229Z,110289.28
2022-12-25T09:31:22.592Z,110548.00
2022-12-25T09:33:51.500Z,110548.00
2022-12-25T09:36:23.620Z,110806.75
2022-12-25T09:38:53.552Z,111065.50
2022-12-25T09:41:30.287Z,111065.50
2022-12-25T09:44:02.870Z,111324.28
2022-12-25T09:46:39.658Z,111583.06
2022-12-25T09:49:17.855Z,111583.06
2022-12-25T09:51:53.407Z,111583.06
2022-12-25T09:54:26.312Z,111841.88
2022-12-25T09:56:54.844Z,111841.88
2022-12-25T09:59:26.662Z,111841.88
2022-12-25T10:02:22.446Z,111841.88
2022-12-25T10:05:07.781Z,112100.69
2022-12-25T10:07:48.368Z,112359.53
2022-12-25T10:10:34.484Z,112359.53
2022-12-25T10:13:12.984Z,112359.53
2022-12-25T10:15:53.413Z,112618.41
2022-12-25T10:18:40.363Z,112618.41
2022-12-25T10:21:13.971Z,112618.41
2022-12-25T10:23:48.250Z,112618.41
2022-12-25T10:26:19.470Z,112877.31
2022-12-25T10:29:00.029Z,112877.31
2022-12-25T10:31:30.622Z,112877.31
2022-12-25T10:33:59.588Z,112877.31
2022-12-25T10:36:30.953Z,112877.31
2022-12-25T10:39:01.386Z,113136.22
2022-12-25T10:41:44.234Z,113136.22
2022-12-25T10:44:20.416Z,113136.22
2022-12-25T10:46:51.297Z,113136.22
2022-12-25T10:49:23.508Z,113136.22
2022-12-25T10:51:53.082Z,113395.13
2022-12-25T10:54:27.188Z,113395.13
2022-12-25T10:57:00.938Z,113654.06
2022-12-25T10:59:31.330Z,113913.03
2022-12-25T11:02:14.576Z,113654.06
2022-12-25T11:04:43.904Z,113913.03
2022-12-25T11:07:22.230Z,113654.06
2022-12-25T11:10:00.955Z,113654.06
2022-12-25T11:12:36.483Z,113654.06
2022-12-25T11:15:08.690Z,113654.06
2022-12-25T11:17:37.666Z,113913.03
2022-12-25T11:20:20.953Z,114172.03
2022-12-25T11:22:50.526Z,114172.03
2022-12-25T11:25:25.051Z,114172.03
2022-12-25T11:27:59.891Z,114172.03
2022-12-25T11:30:30.657Z,114172.03
2022-12-25T11:33:04.050Z,114172.03
2022-12-25T11:35:39.380Z,114172.03
2022-12-25T11:38:10.025Z,114431.03
2022-12-25T11:40:47.998Z,114431.03
2022-12-25T11:43:25.066Z,114431.03
2022-12-25T11:45:57.710Z,114172.03
2022-12-25T11:48:31.392Z,114172.03
2022-12-25T11:51:02.942Z,114172.03
2022-12-25T11:53:38.702Z,114431.03
2022-12-25T11:56:11.379Z,114690.03
2022-12-25T11:58:45.110Z,114690.03
2022-12-25T12:01:23.375Z,114949.09
2022-12-25T12:03:52.516Z,114690.03
2022-12-25T12:06:29.910Z,114690.03
2022-12-25T12:09:11.131Z,114690.03
2022-12-25T12:11:45.527Z,114690.03
2022-12-25T12:14:28.002Z,114690.03
2022-12-25T12:16:56.783Z,114690.03
2022-12-25T12:19:28.121Z,114690.03
2022-12-25T12:22:00.020Z,114690.03
2022-12-25T12:24:31.952Z,114949.09
2022-12-25T12:27:04.854Z,114690.03
2022-12-25T12:29:41.252Z,114690.03
2022-12-25T12:33:45.952Z,114949.09
2022-12-25T12:36:16.011Z,114949.09
2022-12-25T12:38:46.230Z,114949.09
2022-12-25T12:41:18.313Z,114949.09
2022-12-25T12:43:53.991Z,115208.13
2022-12-25T12:46:30.567Z,114949.09
2022-12-25T12:49:12.759Z,115208.13
2022-12-25T12:51:47.278Z,115208.13
2022-12-25T12:54:22.537Z,115208.13
2022-12-25T12:56:59.421Z,115208.13
2022-12-25T12:59:35.386Z,115208.13
2022-12-25T13:02:24.236Z,115208.13
2022-12-25T13:05:04.207Z,115208.13
2022-12-25T13:07:45.213Z,115208.13
2022-12-25T13:10:24.697Z,115208.13
2022-12-25T13:13:00.352Z,115208.13
2022-12-25T13:15:32.484Z,115467.22
2022-12-25T13:18:04.515Z,115467.22
2022-12-25T13:20:43.105Z,115467.22
2022-12-25T13:23:17.243Z,115467.22
2022-12-25T13:25:54.241Z,115467.22
2022-12-25T13:28:27.668Z,115467.22
2022-12-25T13:31:03.855Z,115467.22
2022-12-25T13:33:35.847Z,115467.22
2022-12-25T13:36:07.189Z,115467.22
2022-12-25T13:38:36.432Z,115467.22
2022-12-25T13:41:23.022Z,115467.22
2022-12-25T13:43:52.006Z,115467.22
2022-12-25T13:46:26.970Z,115467.22
2022-12-25T13:49:00.523Z,115467.22
2022-12-25T13:51:31.588Z,115467.22
2022-12-25T13:54:07.884Z,115467.22
2022-12-25T13:56:37.318Z,115467.22
2022-12-25T13:59:06.566Z,115467.22
2022-12-25T14:01:35.564Z,115467.22
2022-12-25T14:04:05.624Z,115726.31
2022-12-25T14:06:35.871Z,115726.31
2022-12-25T14:09:05.899Z,115726.31
2022-12-25T14:11:35.143Z,115726.31
2022-12-25T14:14:09.514Z,115726.31
2022-12-25T14:16:39.203Z,115726.31
2022-12-25T14:19:26.586Z,115726.31
2022-12-25T14:22:01.383Z,115726.31
2022-12-25T14:24:32.065Z,115726.31
2022-12-25T14:27:03.433Z,115726.31
2022-12-25T14:29:37.702Z,115726.31
2022-12-25T14:32:08.775Z,115726.31
2022-12-25T14:34:38.033Z,115728.34
2022-12-25T14:37:16.468Z,115726.31
2022-12-25T14:39:47.839Z,115728.34
2022-12-25T14:42:22.497Z,115728.34
2022-12-25T14:45:01.132Z,115728.34
2022-12-25T14:47:30.965Z,115728.34
2022-12-25T14:50:00.123Z,115728.34
2022-12-25T14:52:34.011Z,115728.34
2022-12-25T14:55:06.285Z,115728.34
2022-12-25T14:57:39.477Z,115728.34
2022-12-25T15:00:22.599Z,115728.34
2022-12-25T15:02:53.144Z,115728.34
2022-12-25T15:05:28.232Z,115728.34
2022-12-25T15:08:03.801Z,115728.34
2022-12-25T15:13:21.784Z,115728.34
2022-12-25T15:15:54.273Z,115728.34
2022-12-25T15:18:25.306Z,115728.34
2022-12-25T15:20:55.724Z,115728.34
2022-12-25T15:23:26.747Z,115728.34
2022-12-25T15:25:55.439Z,115728.34
2022-12-25T15:28:24.085Z,115728.34
2022-12-25T15:30:53.032Z,115728.34
2022-12-25T15:33:21.820Z,115728.34
2022-12-25T15:35:50.496Z,115728.34
2022-12-25T15:38:19.075Z,115728.34
2022-12-25T15:40:49.289Z,115728.34
2022-12-25T15:43:39.884Z,115728.34
2022-12-25T15:46:09.513Z,115728.34
2022-12-25T15:48:38.051Z,115728.34
2022-12-25T15:51:06.810Z,115728.34
2022-12-25T15:53:35.643Z,115728.34
2022-12-25T15:56:06.183Z,115728.34
2022-12-25T15:58:34.978Z,115728.34
2022-12-25T16:01:03.664Z,115728.34
2022-12-25T16:03:32.515Z,115728.34
2022-12-25T16:06:01.212Z,115728.34
2022-12-25T16:08:29.994Z,115728.34
2022-12-25T16:10:58.393Z,115728.34
2022-12-25T16:13:28.424Z,115728.34
2022-12-25T16:15:56.885Z,115728.34
2022-12-25T16:18:25.456Z,115728.34
2022-12-25T16:20:55.136Z,115728.34
2022-12-25T16:23:24.821Z,115728.34
2022-12-25T16:25:53.611Z,115728.34
2022-12-25T16:28:22.598Z,115728.34
2022-12-25T16:30:52.586Z,115728.34
2022-12-25T16:33:21.458Z,115728.34
2022-12-25T16:35:52.143Z,115728.34
2022-12-25T16:38:21.611Z,115728.34
2022-12-25T16:40:56.966Z,115728.34
2022-12-25T16:43:25.973Z,115728.34
2022-12-25T16:45:57.455Z,115728.34
2022-12-25T16:48:26.186Z,115728.34
2022-12-25T16:50:54.723Z,115728.34
2022-12-25T16:53:23.453Z,115728.34
2022-12-25T16:55:52.150Z,115728.34
2022-12-25T16:58:20.891Z,115728.34
2022-12-25T17:00:49.851Z,115728.34
2022-12-25T17:03:20.570Z,115728.34
2022-12-25T17:05:49.903Z,115728.34
2022-12-25T17:08:19.095Z,115728.34
2022-12-25T17:10:47.939Z,115728.34
2022-12-25T17:13:17.659Z,115728.34
2022-12-25T17:15:50.409Z,115728.34
2022-12-25T17:18:22.194Z,115728.34
2022-12-25T17:20:52.626Z,115728.34
2022-12-25T17:23:21.383Z,115728.34
2022-12-25T17:25:53.045Z,115728.34
2022-12-25T17:28:21.664Z,115728.34
2022-12-25T17:30:50.299Z,115728.34
2022-12-25T17:33:20.561Z,115728.34
2022-12-25T17:35:49.367Z,115728.34
2022-12-25T17:38:18.077Z,115728.34
2022-12-25T17:40:46.681Z,115728.34
2022-12-25T17:43:20.523Z,115728.34
2022-12-25T17:45:49.885Z,115728.34
2022-12-25T17:48:18.514Z,115728.34
2022-12-25T17:50:49.005Z,115728.34
2022-12-25T17:53:17.650Z,115728.34
2022-12-25T17:55:46.394Z,115728.34
2022-12-25T17:58:15.352Z,115728.34
2022-12-25T18:00:43.894Z,115728.34
2022-12-25T18:03:12.848Z,115728.34
2022-12-25T18:05:42.141Z,115728.34
2022-12-25T18:08:12.255Z,115728.34
2022-12-25T18:10:43.455Z,115728.34
2022-12-25T18:13:12.837Z,115728.34
2022-12-25T18:15:42.610Z,115728.34
2022-12-25T18:18:11.609Z,115728.34
2022-12-25T18:20:43.139Z,115728.34
2022-12-25T18:23:15.187Z,115728.34
2022-12-25T18:25:44.396Z,115728.34
2022-12-25T18:28:13.114Z,115728.34
2022-12-25T18:30:42.323Z,115728.34
2022-12-25T18:33:11.850Z,115728.34
2022-12-25T18:35:42.020Z,115728.34
2022-12-25T18:38:12.819Z,115728.34
2022-12-25T18:40:43.033Z,115728.34
2022-12-25T18:43:12.273Z,115728.34
2022-12-25T18:45:41.640Z,115728.34
2022-12-25T18:48:11.303Z,115728.34
2022-12-25T18:50:41.448Z,115728.34
2022-12-25T18:53:18.085Z,115728.34
2022-12-25T18:55:51.871Z,115728.34
2022-12-25T18:58:20.394Z,115728.34
2022-12-25T19:00:49.234Z,115728.34
2022-12-25T19:03:17.950Z,115728.34
2022-12-25T19:05:46.917Z,115728.34
2022-12-25T19:08:17.030Z,115728.34
2022-12-25T19:10:46.853Z,115728.34
2022-12-25T19:13:15.784Z,115728.34
2022-12-25T19:15:44.907Z,115728.34
2022-12-25T19:18:13.651Z,115728.34
2022-12-25T19:20:42.765Z,115728.34
2022-12-25T19:23:11.455Z,115728.34
2022-12-25T19:25:42.470Z,115728.34
2022-12-25T19:28:11.430Z,115728.34
2022-12-25T19:30:40.281Z,115728.34
2022-12-25T19:33:15.716Z,115728.34
2022-12-25T19:35:46.880Z,115728.34
2022-12-25T19:38:15.605Z,115728.34
2022-12-25T19:41:00.711Z,115728.34
2022-12-25T19:43:30.679Z,115728.34
2022-12-25T19:46:01.893Z,115728.34
2022-12-25T19:48:31.986Z,115728.34
2022-12-25T19:51:00.783Z,115728.34
2022-12-25T19:53:31.365Z,115728.34
2022-12-25T19:56:03.875Z,115728.34
2022-12-25T19:58:32.435Z,115728.34
2022-12-25T20:01:02.724Z,115728.34
2022-12-25T20:03:31.551Z,115728.34
2022-12-25T20:06:00.489Z,115728.34
2022-12-25T20:08:29.422Z,115728.34
2022-12-25T20:10:57.986Z,115728.34
2022-12-25T20:13:28.245Z,115728.34
2022-12-25T20:16:01.133Z,115728.34
2022-12-25T20:18:29.663Z,115728.34
2022-12-25T20:21:02.203Z,115728.34
2022-12-25T20:23:30.843Z,115728.34
2022-12-25T20:26:01.088Z,115728.34
2022-12-25T20:28:33.055Z,115728.34
2022-12-25T20:31:06.758Z,115728.34
2022-12-25T20:33:35.357Z,115728.34
2022-12-25T20:36:05.144Z,115728.34
2022-12-25T20:38:35.403Z,115728.34
2022-12-25T20:43:57.758Z,115728.34
2022-12-25T20:46:27.686Z,115728.34
2022-12-25T20:48:56.733Z,115728.34
2022-12-25T20:51:27.008Z,115728.34
2022-12-25T20:53:56.331Z,115728.34
2022-12-25T20:56:26.563Z,115728.34
2022-12-25T20:58:58.610Z,115728.34
2022-12-25T21:01:29.201Z,115728.34
2022-12-25T21:03:58.891Z,115728.34
2022-12-25T21:06:27.677Z,115728.34
2022-12-25T21:08:56.179Z,115728.34
2022-12-25T21:11:24.837Z,115728.34
2022-12-25T21:13:53.764Z,115728.34
2022-12-25T21:16:24.504Z,115728.34
2022-12-25T21:18:55.110Z,115728.34
2022-12-25T21:21:24.184Z,115728.34
2022-12-25T21:23:53.306Z,115728.34
2022-12-25T21:26:23.612Z,115728.34
2022-12-25T21:28:55.335Z,115728.34
2022-12-25T21:31:26.568Z,115728.34
2022-12-25T21:33:55.483Z,115728.34
2022-12-25T21:36:28.168Z,115728.34
2022-12-25T21:38:59.394Z,115728.34
2022-12-25T21:41:29.886Z,115728.34
2022-12-25T21:43:59.493Z,115728.34
2022-12-25T21:46:30.992Z,115728.34
2022-12-25T21:49:00.537Z,115728.34
2022-12-25T21:51:48.129Z,115728.34
2022-12-25T21:54:18.479Z,115728.34
2022-12-25T21:56:48.778Z,115728.34
2022-12-25T21:59:19.420Z,115728.34
2022-12-25T22:01:53.210Z,115728.34
2022-12-25T22:04:24.336Z,115728.34
2022-12-25T22:07:11.142Z,115728.34
2022-12-25T22:09:40.270Z,115728.34
2022-12-25T22:12:33.495Z,115728.34
2022-12-25T22:15:07.186Z,115728.34
2022-12-25T22:17:56.422Z,115728.34
2022-12-25T22:20:28.170Z,115728.34
2022-12-25T22:22:57.194Z,115728.34
2022-12-25T22:25:26.393Z,115728.34
2022-12-25T22:27:55.700Z,115728.34
2022-12-25T22:30:26.666Z,115728.34
2022-12-25T22:32:57.657Z,115728.34
2022-12-25T22:35:26.921Z,115728.34
2022-12-25T22:37:59.052Z,115728.34
2022-12-25T22:40:27.858Z,115728.34
2022-12-25T22:42:57.609Z,115728.34
2022-12-25T22:45:26.614Z,115728.34
2022-12-25T22:47:56.799Z,115728.34
2022-12-25T22:50:26.035Z,115728.34
2022-12-25T22:52:54.675Z,115728.34
2022-12-25T22:55:23.438Z,115728.34
2022-12-25T22:57:52.386Z,115728.34
2022-12-25T23:00:21.387Z,115728.34
2022-12-25T23:02:50.434Z,115728.34
2022-12-25T23:05:21.304Z,115728.34
2022-12-25T23:07:50.178Z,115728.34
2022-12-25T23:10:19.278Z,115728.34
2022-12-25T23:13:05.488Z,115728.34
2022-12-25T23:15:34.571Z,115728.34
2022-12-25T23:18:20.638Z,115728.34
2022-12-25T23:21:09.021Z,115728.34
2022-12-25T23:23:55.436Z,115728.34
2022-12-25T23:26:24.085Z,115728.34
2022-12-25T23:29:10.273Z,115728.34
2022-12-25T23:31:42.238Z,115728.34
2022-12-25T23:34:11.898Z,115728.34
2022-12-25T23:36:42.089Z,115728.34
2022-12-25T23:39:10.877Z,115728.34
2022-12-25T23:41:40.356Z,115728.34
2022-12-25T23:44:09.980Z,115728.34
2022-12-25T23:46:40.871Z,115728.34
2022-12-25T23:49:11.569Z,115728.34
2022-12-25T23:51:44.495Z,115728.34
2022-12-25T23:54:14.865Z,115728.34
2022-12-25T23:56:44.599Z,115728.34
2022-12-25T23:59:14.084Z,115728.34
